createdAt,value
2023-03-08T00:02:22.986Z,99484.28
2023-03-08T00:04:49.934Z,99487.97
2023-03-08T00:07:16.873Z,99479.44
2023-03-08T00:09:43.876Z,99481.31
2023-03-08T00:12:11.486Z,99475.31
2023-03-08T00:14:38.428Z,99468.44
2023-03-08T00:17:05.458Z,99473.06
2023-03-08T00:19:32.768Z,99488.88
2023-03-08T00:21:59.716Z,99483.09
2023-03-08T00:24:26.626Z,99485.72
2023-03-08T00:26:54.160Z,99481.50
2023-03-08T00:29:21.338Z,99477.38
2023-03-08T00:31:48.669Z,99468.63
2023-03-08T00:34:16.084Z,99465.34
2023-03-08T00:36:43.631Z,99468.00
2023-03-08T00:39:12.108Z,99468.09
2023-03-08T00:41:38.980Z,99460.41
2023-03-08T00:44:06.134Z,99461.44
2023-03-08T00:46:33.062Z,99475.47
2023-03-08T00:49:00.200Z,99471.13
2023-03-08T00:51:27.645Z,99458.94
2023-03-08T00:53:54.733Z,99450.38
2023-03-08T00:56:22.070Z,99457.53
2023-03-08T00:58:48.982Z,99443.72
2023-03-08T01:01:18.303Z,99450.69
2023-03-08T01:03:45.306Z,99449.84
2023-03-08T01:06:15.126Z,99457.81
2023-03-08T01:08:45.638Z,99453.59
2023-03-08T01:11:21.579Z,99456.34
2023-03-08T01:13:50.256Z,99448.53
2023-03-08T01:16:25.543Z,99440.75
2023-03-08T01:18:52.663Z,99439.03
2023-03-08T01:21:19.561Z,99440.00
2023-03-08T01:23:46.982Z,99441.91
2023-03-08T01:26:31.869Z,99438.44
2023-03-08T01:28:58.803Z,99441.16
2023-03-08T01:31:28.203Z,99442.00
2023-03-08T01:33:56.056Z,99432.50
2023-03-08T01:36:25.312Z,99429.88
2023-03-08T01:38:52.615Z,99422.91
2023-03-08T01:41:26.358Z,99423.22
2023-03-08T01:43:54.088Z,99423.88
2023-03-08T01:46:23.829Z,99423.22
2023-03-08T01:49:11.004Z,99431.03
2023-03-08T01:51:50.612Z,99423.22
2023-03-08T01:54:51.764Z,99425.00
2023-03-08T01:57:28.800Z,99427.63
2023-03-08T02:00:18.579Z,99427.63
2023-03-08T02:02:51.037Z,99426.78
2023-03-08T02:05:19.253Z,99426.91
2023-03-08T02:07:46.278Z,99418.06
2023-03-08T02:10:13.628Z,99410.25
2023-03-08T02:12:41.431Z,99419.00
2023-03-08T02:15:11.411Z,99423.53
2023-03-08T02:17:40.294Z,99422.47
2023-03-08T02:20:07.118Z,99425.13
2023-03-08T02:22:39.005Z,99404.13
2023-03-08T02:25:16.940Z,99406.75
2023-03-08T02:27:44.445Z,99399.81
2023-03-08T02:30:14.220Z,99400.69
2023-03-08T02:32:41.185Z,99398.88
2023-03-08T02:35:08.512Z,99401.50
2023-03-08T02:37:35.957Z,99404.13
2023-03-08T02:40:02.818Z,99397.94
2023-03-08T02:42:29.609Z,99387.59
2023-03-08T02:44:56.606Z,99391.81
2023-03-08T02:47:23.446Z,99394.44
2023-03-08T02:49:50.379Z,99390.03
2023-03-08T02:52:17.491Z,99392.66
2023-03-08T02:54:44.417Z,99385.69
2023-03-08T02:57:11.321Z,99382.13
2023-03-08T02:59:38.155Z,99388.25
2023-03-08T03:02:04.997Z,99387.41
2023-03-08T03:04:33.275Z,99381.19
2023-03-08T03:07:00.709Z,99378.56
2023-03-08T03:09:28.219Z,99367.25
2023-03-08T03:11:55.125Z,99369.69
2023-03-08T03:14:21.961Z,99358.53
2023-03-08T03:16:48.812Z,99364.44
2023-03-08T03:19:15.648Z,99367.91
2023-03-08T03:21:42.469Z,99360.22
2023-03-08T03:24:09.322Z,99365.19
2023-03-08T03:26:36.157Z,99362.56
2023-03-08T03:29:03.046Z,99361.72
2023-03-08T03:31:30.086Z,99359.06
2023-03-08T03:33:57.203Z,99358.97
2023-03-08T03:36:24.323Z,99358.09
2023-03-08T03:38:51.529Z,99362.31
2023-03-08T03:41:21.163Z,99353.69
2023-03-08T03:43:48.487Z,99351.91
2023-03-08T03:46:18.714Z,99356.25
2023-03-08T03:48:46.444Z,99353.50
2023-03-08T03:51:18.715Z,99355.41
2023-03-08T03:53:46.019Z,99348.22
2023-03-08T03:56:19.362Z,99337.88
2023-03-08T03:58:46.513Z,99347.28
2023-03-08T04:01:26.174Z,99342.97
2023-03-08T04:03:54.910Z,99341.06
2023-03-08T04:06:29.801Z,99343.69
2023-03-08T04:09:07.286Z,99339.38
2023-03-08T04:11:37.687Z,99328.72
2023-03-08T04:14:05.055Z,99323.59
2023-03-08T04:16:37.224Z,99323.38
2023-03-08T04:19:08.393Z,99326.94
2023-03-08T04:21:35.486Z,99324.00
2023-03-08T04:24:02.683Z,99325.91
2023-03-08T04:26:29.895Z,99324.41
2023-03-08T04:28:57.197Z,99330.31
2023-03-08T04:31:26.979Z,99333.91
2023-03-08T04:33:54.868Z,99333.91
2023-03-08T04:36:22.654Z,99333.91
2023-03-08T04:38:50.206Z,99333.06
2023-03-08T04:41:17.475Z,99323.38
2023-03-08T04:43:49.451Z,99326.03
2023-03-08T04:46:18.123Z,99326.75
2023-03-08T04:48:45.351Z,99328.41
2023-03-08T04:51:14.098Z,99319.78
2023-03-08T04:53:41.900Z,99318.94
2023-03-08T04:56:09.707Z,99318.84
2023-03-08T04:58:37.314Z,99325.78
2023-03-08T05:01:10.563Z,99330.13
2023-03-08T05:03:37.423Z,99329.19
2023-03-08T05:06:04.534Z,99323.16
2023-03-08T05:08:31.365Z,99328.31
2023-03-08T05:11:01.214Z,99315.38
2023-03-08T05:13:30.544Z,99322.09
2023-03-08T05:15:57.899Z,99325.56
2023-03-08T05:18:24.916Z,99327.34
2023-03-08T05:20:59.414Z,99333.47
2023-03-08T05:23:28.652Z,99331.56
2023-03-08T05:25:57.368Z,99323.19
2023-03-08T05:28:26.052Z,99316.84
2023-03-08T05:31:05.290Z,99313.34
2023-03-08T05:33:32.313Z,99322.50
2023-03-08T05:35:59.819Z,99317.66
2023-03-08T05:38:27.348Z,99310.50
2023-03-08T05:40:54.398Z,99308.63
2023-03-08T05:43:22.350Z,99313.03
2023-03-08T05:45:57.715Z,99307.78
2023-03-08T05:48:25.160Z,99311.97
2023-03-08T05:50:52.693Z,99319.97
2023-03-08T05:53:20.066Z,99309.22
2023-03-08T05:55:47.035Z,99320.63
2023-03-08T05:58:14.217Z,99320.50
2023-03-08T06:00:41.400Z,99327.47
2023-03-08T06:03:08.374Z,99325.47
2023-03-08T06:05:35.621Z,99330.53
2023-03-08T06:08:02.543Z,99327.50
2023-03-08T06:10:29.379Z,99322.72
2023-03-08T06:12:56.248Z,99320.63
2023-03-08T06:15:23.248Z,99319.78
2023-03-08T06:17:53.607Z,99313.22
2023-03-08T06:20:20.841Z,99323.13
2023-03-08T06:22:47.733Z,99315.75
2023-03-08T06:25:14.726Z,99317.09
2023-03-08T06:27:41.647Z,99315.06
2023-03-08T06:30:09.341Z,99319.94
2023-03-08T06:32:38.133Z,99317.94
2023-03-08T06:35:05.348Z,99312.53
2023-03-08T06:37:34.372Z,99314.34
2023-03-08T06:40:02.207Z,99316.59
2023-03-08T06:42:40.620Z,99318.03
2023-03-08T06:45:09.230Z,99315.09
2023-03-08T06:47:36.140Z,99317.81
2023-03-08T06:50:03.277Z,99322.25
2023-03-08T06:52:37.783Z,99324.78
2023-03-08T06:55:05.715Z,99310.63
2023-03-08T06:57:32.691Z,99329.72
2023-03-08T06:59:59.532Z,99326.88
2023-03-08T07:02:26.398Z,99313.69
2023-03-08T07:04:53.252Z,99326.66
2023-03-08T07:07:20.170Z,99325.59
2023-03-08T07:09:47.121Z,99328.09
2023-03-08T07:12:14.006Z,99324.19
2023-03-08T07:14:40.885Z,99331.59
2023-03-08T07:17:07.792Z,99337.03
2023-03-08T07:19:34.693Z,99335.09
2023-03-08T07:22:01.640Z,99332.44
2023-03-08T07:24:28.706Z,99339.97
2023-03-08T07:26:55.735Z,99339.44
2023-03-08T07:29:22.777Z,99334.56
2023-03-08T07:31:49.966Z,99340.34
2023-03-08T07:34:17.107Z,99343.72
2023-03-08T07:36:43.986Z,99337.53
2023-03-08T07:39:10.888Z,99342.78
2023-03-08T07:41:37.886Z,99345.41
2023-03-08T07:44:05.106Z,99338.47
2023-03-08T07:46:32.342Z,99346.56
2023-03-08T07:48:59.275Z,99347.28
2023-03-08T07:51:26.296Z,99349.09
2023-03-08T07:53:53.273Z,99345.63
2023-03-08T07:56:20.217Z,99355.41
2023-03-08T07:58:47.377Z,99360.75
2023-03-08T08:01:14.963Z,99365.16
2023-03-08T08:03:42.088Z,99360.94
2023-03-08T08:06:10.362Z,99363.50
2023-03-08T08:08:37.266Z,99360.75
2023-03-08T08:11:11.134Z,99362.66
2023-03-08T08:13:38.079Z,99362.66
2023-03-08T08:16:07.401Z,99363.50
2023-03-08T08:18:35.869Z,99365.09
2023-03-08T08:21:05.808Z,99363.31
2023-03-08T08:23:33.349Z,99362.25
2023-03-08T08:26:00.699Z,99359.50
2023-03-08T08:28:28.205Z,99355.94
2023-03-08T08:31:04.432Z,99362.88
2023-03-08T08:33:32.925Z,99362.88
2023-03-08T08:36:00.737Z,99373.22
2023-03-08T08:38:27.760Z,99371.31
2023-03-08T08:40:54.759Z,99366.16
2023-03-08T08:43:21.785Z,99371.44
2023-03-08T08:45:55.655Z,99361.00
2023-03-08T08:48:23.041Z,99362.69
2023-03-08T08:50:50.138Z,99357.41
2023-03-08T08:53:17.339Z,99371.13
2023-03-08T08:55:45.699Z,99362.38
2023-03-08T08:58:13.035Z,99363.22
2023-03-08T09:00:40.345Z,99366.72
2023-03-08T09:03:07.836Z,99361.31
2023-03-08T09:05:39.846Z,99360.38
2023-03-08T09:08:07.930Z,99360.19
2023-03-08T09:10:37.354Z,99367.16
2023-03-08T09:13:06.013Z,99353.16
2023-03-08T09:15:34.823Z,99357.16
2023-03-08T09:18:02.031Z,99357.25
2023-03-08T09:20:29.258Z,99357.16
2023-03-08T09:22:56.719Z,99352.75
2023-03-08T09:25:24.673Z,99350.94
2023-03-08T09:27:51.752Z,99355.25
2023-03-08T09:30:19.093Z,99358.53
2023-03-08T09:32:46.235Z,99356.84
2023-03-08T09:35:16.362Z,99363.69
2023-03-08T09:37:43.679Z,99356.84
2023-03-08T09:40:26.877Z,99364.44
2023-03-08T09:43:00.602Z,99356.44
2023-03-08T09:45:29.638Z,99358.97
2023-03-08T09:48:13.720Z,99351.91
2023-03-08T09:50:52.717Z,99357.81
2023-03-08T09:53:35.091Z,99359.28
2023-03-08T09:56:12.255Z,99349.50
2023-03-08T09:59:00.015Z,99352.03
2023-03-08T10:01:39.397Z,99351.84
2023-03-08T10:04:21.189Z,99338.66
2023-03-08T10:07:03.653Z,99348.88
2023-03-08T10:09:45.135Z,99349.53
2023-03-08T10:12:30.980Z,99354.47
2023-03-08T10:15:04.566Z,99348.16
2023-03-08T10:17:44.496Z,99343.81
2023-03-08T10:20:34.785Z,99346.88
2023-03-08T10:23:13.775Z,99349.41
2023-03-08T10:25:40.928Z,99344.66
2023-03-08T10:28:27.924Z,99341.94
2023-03-08T10:30:58.993Z,99346.16
2023-03-08T10:33:32.718Z,99343.81
2023-03-08T10:35:59.814Z,99349.75
2023-03-08T10:38:29.524Z,99342.34
2023-03-08T10:41:18.028Z,99342.13
2023-03-08T10:43:56.069Z,99337.38
2023-03-08T10:46:34.200Z,99341.81
2023-03-08T10:49:16.377Z,99334.53
2023-03-08T10:51:54.399Z,99327.56
2023-03-08T10:54:21.521Z,99335.56
2023-03-08T10:57:00.749Z,99327.34
2023-03-08T10:59:34.707Z,99328.81
2023-03-08T11:02:23.134Z,99333.88
2023-03-08T11:04:56.515Z,99325.00
2023-03-08T11:07:33.849Z,99323.94
2023-03-08T11:10:18.454Z,99327.31
2023-03-08T11:12:46.201Z,99319.09
2023-03-08T11:15:19.375Z,99325.22
2023-03-08T11:18:04.375Z,99324.38
2023-03-08T11:20:45.855Z,99320.59
2023-03-08T11:23:58.185Z,99319.53
2023-03-08T11:26:31.089Z,99321.31
2023-03-08T11:29:23.071Z,99321.31
2023-03-08T11:32:11.088Z,99327.44
2023-03-08T11:35:00.756Z,99320.16
2023-03-08T11:37:59.327Z,99319.19
2023-03-08T11:40:36.505Z,99328.66
2023-03-08T11:43:21.905Z,99317.16
2023-03-08T11:46:07.605Z,99312.75
2023-03-08T11:49:11.639Z,99310.84
2023-03-08T11:51:57.237Z,99310.84
2023-03-08T11:55:01.418Z,99313.69
2023-03-08T11:57:34.910Z,99308.41
2023-03-08T12:00:13.622Z,99314.41
2023-03-08T12:02:48.761Z,99309.13
2023-03-08T12:06:11.762Z,99303.00
2023-03-08T12:08:54.735Z,99313.47
2023-03-08T12:11:28.202Z,99308.19
2023-03-08T12:14:34.291Z,99306.28
2023-03-08T12:17:20.889Z,99300.06
2023-03-08T12:19:50.984Z,99301.94
2023-03-08T12:22:54.985Z,99305.34
2023-03-08T12:25:36.386Z,99309.75
2023-03-08T12:28:14.494Z,99301.94
2023-03-08T12:30:51.454Z,99303.13
2023-03-08T12:33:19.274Z,99300.28
2023-03-08T12:36:07.474Z,99306.50
2023-03-08T12:38:46.215Z,99298.50
2023-03-08T12:41:30.081Z,99290.78
2023-03-08T12:44:22.334Z,99298.56
2023-03-08T12:47:18.075Z,99296.56
2023-03-08T12:49:49.849Z,99293.94
2023-03-08T12:52:19.728Z,99282.75
2023-03-08T12:54:58.458Z,99300.78
2023-03-08T12:57:37.146Z,99292.25
2023-03-08T13:00:26.191Z,99289.28
2023-03-08T13:03:07.197Z,99292.88
2023-03-08T13:05:37.120Z,99293.59
2023-03-08T13:08:17.714Z,99290.94
2023-03-08T13:10:50.340Z,99290.94
2023-03-08T13:13:37.411Z,99282.09
2023-03-08T13:16:27.817Z,99290.84
2023-03-08T13:19:17.125Z,99290.94
2023-03-08T13:22:00.477Z,99288.94
2023-03-08T13:24:43.791Z,99290.72
2023-03-08T13:27:13.316Z,99290.94
2023-03-08T13:29:43.825Z,99292.66
2023-03-08T13:32:17.749Z,99287.38
2023-03-08T13:34:47.761Z,99289.16
2023-03-08T13:37:26.829Z,99281.38
2023-03-08T13:39:59.570Z,99278.72
2023-03-08T13:42:28.701Z,99280.41
2023-03-08T13:45:18.910Z,99285.59
2023-03-08T13:47:47.546Z,99275.13
2023-03-08T13:50:45.033Z,99281.38
2023-03-08T13:53:37.110Z,99278.72
2023-03-08T13:56:06.521Z,99277.75
2023-03-08T13:58:47.645Z,99274.41
2023-03-08T14:01:22.872Z,99274.53
2023-03-08T14:03:51.812Z,99272.69
2023-03-08T14:06:36.213Z,99267.22
2023-03-08T14:09:04.030Z,99263.97
2023-03-08T14:11:42.723Z,99271.25
2023-03-08T14:14:24.364Z,99261.66
2023-03-08T14:16:55.130Z,99254.06
2023-03-08T14:19:37.782Z,99258.28
2023-03-08T14:22:28.630Z,99247.00
2023-03-08T14:25:05.544Z,99250.50
2023-03-08T14:27:38.351Z,99247.94
2023-03-08T14:30:37.710Z,99246.28
2023-03-08T14:33:19.296Z,99247.94
2023-03-08T14:36:00.159Z,99259.47
2023-03-08T14:38:34.131Z,99256.94
2023-03-08T14:41:08.215Z,99256.84
2023-03-08T14:43:35.735Z,99250.81
2023-03-08T14:53:27.222Z,99248.50
2023-03-08T14:55:55.309Z,99248.63
2023-03-08T14:58:27.232Z,99240.19
2023-03-08T15:00:56.634Z,99243.78
2023-03-08T15:03:24.338Z,99244.84
2023-03-08T15:05:52.346Z,99242.28
2023-03-08T15:08:19.736Z,99254.66
2023-03-08T15:10:50.002Z,99249.47
2023-03-08T15:13:20.792Z,99237.22
2023-03-08T15:15:49.193Z,99250.53
2023-03-08T15:18:17.047Z,99246.22
2023-03-08T15:20:46.977Z,99242.75
2023-03-08T15:23:25.119Z,99237.47
2023-03-08T15:25:52.617Z,99239.38
2023-03-08T15:28:21.711Z,99239.38
2023-03-08T15:30:50.815Z,99240.44
2023-03-08T15:33:18.189Z,99240.13
2023-03-08T15:35:45.918Z,99236.84
2023-03-08T15:38:19.020Z,99237.91
2023-03-08T15:40:46.138Z,99238.84
2023-03-08T15:43:14.233Z,99232.66
2023-03-08T15:45:41.637Z,99235.50
2023-03-08T15:48:19.208Z,99238.13
2023-03-08T15:50:46.856Z,99226.94
2023-03-08T15:53:23.349Z,99229.38
2023-03-08T15:56:00.194Z,99238.13
2023-03-08T15:58:27.398Z,99237.91
2023-03-08T16:00:54.845Z,99236.44
2023-03-08T16:03:26.254Z,99240.03
2023-03-08T16:05:53.463Z,99240.94
2023-03-08T16:08:21.785Z,99236.63
2023-03-08T16:10:48.875Z,99237.25
2023-03-08T16:13:18.074Z,99243.97
2023-03-08T16:15:45.922Z,99232.34
2023-03-08T16:18:13.032Z,99244.38
2023-03-08T16:20:41.281Z,99243.31
2023-03-08T16:23:08.349Z,99243.41
2023-03-08T16:25:35.365Z,99242.25
2023-03-08T16:28:02.916Z,99245.59
2023-03-08T16:30:30.288Z,99235.91
2023-03-08T16:32:57.292Z,99235.75
2023-03-08T16:35:24.357Z,99240.09
2023-03-08T16:37:53.883Z,99239.16
2023-03-08T16:40:20.938Z,99228.69
2023-03-08T16:42:51.203Z,99226.06
2023-03-08T16:45:18.189Z,99231.00
2023-03-08T16:47:45.158Z,99239.88
2023-03-08T16:50:14.114Z,99239.88
2023-03-08T16:52:41.210Z,99235.44
2023-03-08T16:55:08.780Z,99232.69
2023-03-08T16:57:38.191Z,99238.19
2023-03-08T17:00:06.919Z,99243.38
2023-03-08T17:02:33.976Z,99238.19
2023-03-08T17:05:00.959Z,99242.88
2023-03-08T17:07:27.958Z,99242.97
2023-03-08T17:09:55.700Z,99246.22
2023-03-08T17:12:23.188Z,99240.09
2023-03-08T17:14:50.283Z,99246.22
2023-03-08T17:17:18.763Z,99252.56
2023-03-08T17:19:46.606Z,99258.69
2023-03-08T17:22:13.699Z,99252.72
2023-03-08T17:24:40.726Z,99257.06
2023-03-08T17:27:07.608Z,99262.31
2023-03-08T17:29:34.529Z,99256.66
2023-03-08T17:32:01.697Z,99266.13
2023-03-08T17:34:28.873Z,99262.56
2023-03-08T17:36:55.912Z,99269.75
2023-03-08T17:39:22.890Z,99261.50
2023-03-08T17:41:51.893Z,99258.31
2023-03-08T17:44:18.846Z,99271.50
2023-03-08T17:46:46.218Z,99266.38
2023-03-08T17:49:14.280Z,99269.13
2023-03-08T17:51:43.042Z,99267.22
2023-03-08T17:54:12.276Z,99267.72
2023-03-08T17:56:41.192Z,99265.31
2023-03-08T17:59:08.658Z,99272.28
2023-03-08T18:01:35.913Z,99273.34
2023-03-08T18:04:05.394Z,99274.28
2023-03-08T18:06:41.536Z,99281.41
2023-03-08T18:09:35.510Z,99289.66
2023-03-08T18:12:02.775Z,99289.63
2023-03-08T18:14:39.462Z,99295.97
2023-03-08T18:17:07.894Z,99301.66
2023-03-08T18:19:39.453Z,99306.28
2023-03-08T18:22:06.678Z,99307.56
2023-03-08T18:24:34.697Z,99308.06
2023-03-08T18:27:02.013Z,99307.88
2023-03-08T18:29:30.985Z,99314.59
2023-03-08T18:31:58.319Z,99308.38
2023-03-08T18:34:25.691Z,99316.81
2023-03-08T18:36:52.828Z,99321.94
2023-03-08T18:39:19.900Z,99323.75
2023-03-08T18:41:46.944Z,99316.59
2023-03-08T18:44:14.804Z,99316.59
2023-03-08T18:46:41.943Z,99323.31
2023-03-08T18:49:12.679Z,99326.69
2023-03-08T18:51:41.905Z,99320.16
2023-03-08T18:54:12.308Z,99315.75
2023-03-08T18:56:39.273Z,99317.63
2023-03-08T18:59:07.804Z,99318.47
2023-03-08T19:01:35.461Z,99316.69
2023-03-08T19:04:04.933Z,99321.75
2023-03-08T19:06:33.900Z,99330.91
2023-03-08T19:09:02.477Z,99326.25
2023-03-08T19:11:29.665Z,99331.09
2023-03-08T19:13:57.422Z,99330.66
2023-03-08T19:16:30.284Z,99330.09
2023-03-08T19:19:00.186Z,99331.22
2023-03-08T19:21:30.353Z,99326.00
2023-03-08T19:24:00.865Z,99329.03
2023-03-08T19:26:37.605Z,99324.75
2023-03-08T19:29:06.688Z,99330.44
2023-03-08T19:31:37.226Z,99333.44
2023-03-08T19:34:07.585Z,99337.94
2023-03-08T19:36:38.792Z,99339.88
2023-03-08T19:39:08.622Z,99339.53
2023-03-08T19:41:37.651Z,99341.00
2023-03-08T19:44:07.411Z,99335.22
2023-03-08T19:46:36.120Z,99340.81
2023-03-08T19:49:06.551Z,99338.31
2023-03-08T19:51:35.278Z,99339.53
2023-03-08T19:54:03.704Z,99346.63
2023-03-08T19:56:31.020Z,99347.88
2023-03-08T19:59:00.306Z,99343.53
2023-03-08T20:01:28.477Z,99346.66
2023-03-08T20:03:57.922Z,99346.06
2023-03-08T20:06:26.692Z,99349.78
2023-03-08T20:08:56.077Z,99344.97
2023-03-08T20:11:26.065Z,99352.06
2023-03-08T20:13:54.519Z,99343.75
2023-03-08T20:16:24.044Z,99358.31
2023-03-08T20:18:52.147Z,99352.91
2023-03-08T20:21:20.883Z,99364.69
2023-03-08T20:23:55.686Z,99357.69
2023-03-08T20:26:25.448Z,99364.31
2023-03-08T20:28:53.589Z,99371.91
2023-03-08T20:31:23.786Z,99376.22
2023-03-08T20:33:52.514Z,99376.91
2023-03-08T20:36:20.005Z,99376.22
2023-03-08T20:38:49.178Z,99371.91
2023-03-08T20:41:19.045Z,99371.31
2023-03-08T20:43:48.163Z,99375.66
2023-03-08T20:46:18.790Z,99373.56
2023-03-08T20:48:48.693Z,99378.88
2023-03-08T20:51:21.223Z,99380.81
2023-03-08T20:53:51.325Z,99382.50
2023-03-08T20:56:22.606Z,99376.59
2023-03-08T20:58:57.071Z,99380.31
2023-03-08T21:01:30.213Z,99387.78
2023-03-08T21:04:02.108Z,99392.59
2023-03-08T21:06:31.706Z,99391.16
2023-03-08T21:09:00.403Z,99394.88
2023-03-08T21:11:29.699Z,99391.63
2023-03-08T21:13:58.874Z,99403.06
2023-03-08T21:16:30.725Z,99399.31
2023-03-08T21:19:04.516Z,99401.97
2023-03-08T21:21:43.791Z,99406.19
2023-03-08T21:24:19.559Z,99407.75
2023-03-08T21:26:48.010Z,99402.59
2023-03-08T21:29:18.311Z,99401.97
2023-03-08T21:31:52.094Z,99403.53
2023-03-08T21:34:22.810Z,99411.38
2023-03-08T21:36:50.296Z,99410.63
2023-03-08T21:39:18.300Z,99412.94
2023-03-08T21:41:47.812Z,99412.56
2023-03-08T21:44:20.721Z,99421.13
2023-03-08T21:46:48.773Z,99409.91
2023-03-08T21:49:25.326Z,99415.94
2023-03-08T21:51:56.065Z,99421.59
2023-03-08T21:54:24.761Z,99414.72
2023-03-08T21:56:53.191Z,99413.06
2023-03-08T21:59:24.603Z,99419.78
2023-03-08T22:01:56.081Z,99416.28
2023-03-08T22:04:23.460Z,99414.25
2023-03-08T22:06:50.744Z,99417.38
2023-03-08T22:09:19.055Z,99417.25
2023-03-08T22:11:46.220Z,99422.41
2023-03-08T22:14:14.132Z,99427.19
2023-03-08T22:16:41.486Z,99434.25
2023-03-08T22:19:10.584Z,99414.13
2023-03-08T22:21:38.003Z,99416.28
2023-03-08T22:24:05.441Z,99418.75
2023-03-08T22:26:33.039Z,99421.00
2023-03-08T22:29:01.836Z,99422.41
2023-03-08T22:31:31.005Z,99423.69
2023-03-08T22:33:58.897Z,99417.06
2023-03-08T22:36:26.371Z,99421.84
2023-03-08T22:38:54.090Z,99420.59
2023-03-08T22:41:26.349Z,99422.84
2023-03-08T22:43:54.127Z,99425.09
2023-03-08T22:46:26.106Z,99428.91
2023-03-08T22:48:55.476Z,99425.78
2023-03-08T22:51:28.402Z,99426.84
2023-03-08T22:53:56.513Z,99426.41
2023-03-08T22:56:27.201Z,99427.69
2023-03-08T22:58:54.626Z,99429.59
2023-03-08T23:01:24.261Z,99430.88
2023-03-08T23:03:55.814Z,99427.72
2023-03-08T23:06:24.406Z,99440.19
2023-03-08T23:08:51.843Z,99432.59
2023-03-08T23:11:18.906Z,99436.28
2023-03-08T23:13:46.882Z,99433.13
2023-03-08T23:16:15.594Z,99435.03
2023-03-08T23:18:43.964Z,99438.88
2023-03-08T23:21:14.429Z,99436.53
2023-03-08T23:23:41.904Z,99432.44
2023-03-08T23:26:12.377Z,99438.75
2023-03-08T23:28:43.445Z,99438.94
2023-03-08T23:31:15.002Z,99438.50
2023-03-08T23:33:43.246Z,99447.38
2023-03-08T23:36:15.726Z,99455.59
2023-03-08T23:38:43.673Z,99452.34
2023-03-08T23:41:13.062Z,99464.66
2023-03-08T23:43:41.200Z,99458.03
2023-03-08T23:46:16.863Z,99462.44
2023-03-08T23:48:45.418Z,99460.00
2023-03-08T23:51:20.992Z,99458.34
2023-03-08T23:53:54.803Z,99464.88
2023-03-08T23:56:30.399Z,99469.41
2023-03-08T23:58:59.491Z,99471.41
